Seven Springs, Florida
Current Conditions -  °F | °C
As of 10:53 AM on Thursday 18 Dec 2014 (Local Time) from KBKV Reporting Station
Clear Clear  
Wind Chill: 64°   Ceiling: Unl
Heat Index: 64°   Visibility: 10mi
Dew Point: 46°   Wind: 9mph
Humidity: 52%   Direction: 310°NW
Pressure: 30.21"   Gusts: NA
Location:  28.2318°N, 82.5991°W
Report Text: KBKV 181553Z 31008KT 10SM CLR 18/08 A3021 RMK AO2 SLP228 T01780078
Loading
Personal Weather Stations






























Interactive Weather Map New forecast layout! Learn more

10-Day Weather Forecast

Advertisements
Track Severe Weather on mobile